createdAt,value
2023-11-23T00:00:21.617Z,2.05
2023-11-23T00:02:49.168Z,2.07
2023-11-23T00:05:16.387Z,2.10
2023-11-23T00:07:43.631Z,2.12
2023-11-23T00:10:11.713Z,2.13
2023-11-23T00:12:42.836Z,2.14
2023-11-23T00:15:10.163Z,2.18
2023-11-23T00:17:39.311Z,2.19
2023-11-23T00:20:07.612Z,2.22
2023-11-23T00:22:35.570Z,2.20
2023-11-23T00:25:04.579Z,2.18
2023-11-23T00:27:33.074Z,2.17
2023-11-23T00:30:00.422Z,2.20
2023-11-23T00:32:28.194Z,2.23
2023-11-23T00:34:55.414Z,2.30
2023-11-23T00:37:23.039Z,2.34
2023-11-23T00:39:50.254Z,2.38
2023-11-23T00:42:17.502Z,2.44
2023-11-23T00:44:44.772Z,2.54
2023-11-23T00:47:12.891Z,2.59
2023-11-23T00:49:40.168Z,2.60
2023-11-23T00:52:07.361Z,2.60
2023-11-23T00:54:39.154Z,2.62
2023-11-23T00:57:07.178Z,2.66
2023-11-23T00:59:35.035Z,2.69
2023-11-23T01:02:03.378Z,2.73
2023-11-23T01:04:30.876Z,2.79
2023-11-23T01:06:58.129Z,2.82
2023-11-23T01:09:25.321Z,2.83
2023-11-23T01:11:52.733Z,2.88
2023-11-23T01:14:20.081Z,2.94
2023-11-23T01:16:47.322Z,2.98
2023-11-23T01:19:14.580Z,2.99
2023-11-23T01:21:43.339Z,3.07
2023-11-23T01:24:12.205Z,3.07
2023-11-23T01:26:39.435Z,3.09
2023-11-23T01:29:06.672Z,3.09
2023-11-23T01:31:33.923Z,3.11
2023-11-23T01:34:01.421Z,3.18
2023-11-23T01:36:28.726Z,3.20
2023-11-23T01:38:55.938Z,3.21
2023-11-23T01:41:23.194Z,3.26
2023-11-23T01:43:50.403Z,3.31
2023-11-23T01:46:17.640Z,3.32
2023-11-23T01:48:45.569Z,3.37
2023-11-23T01:51:13.725Z,3.43
2023-11-23T01:53:42.254Z,3.49
2023-11-23T01:56:11.771Z,3.48
2023-11-23T01:58:41.722Z,3.55
2023-11-23T02:01:08.962Z,3.63
2023-11-23T02:03:36.487Z,3.71
2023-11-23T02:06:03.806Z,3.78
2023-11-23T02:08:31.001Z,3.82
2023-11-23T02:10:59.575Z,3.87
2023-11-23T02:13:26.885Z,3.91
2023-11-23T02:15:54.124Z,4.01
2023-11-23T02:18:23.602Z,4.05
2023-11-23T02:20:50.913Z,4.07
2023-11-23T02:23:18.124Z,4.13
2023-11-23T02:25:45.313Z,4.21
2023-11-23T02:28:12.516Z,4.25
2023-11-23T02:30:39.838Z,4.27
2023-11-23T02:33:09.528Z,4.31
2023-11-23T02:35:36.855Z,4.35
2023-11-23T02:38:04.112Z,4.40
2023-11-23T02:40:31.314Z,4.44
2023-11-23T02:42:58.531Z,4.52
2023-11-23T02:45:25.764Z,4.58
2023-11-23T02:47:54.127Z,4.63
2023-11-23T02:50:21.388Z,4.68
2023-11-23T02:52:48.591Z,4.73
2023-11-23T02:55:15.812Z,4.78
2023-11-23T02:57:43.381Z,4.85
2023-11-23T03:00:12.252Z,4.90
2023-11-23T03:02:40.038Z,4.97
2023-11-23T03:05:07.617Z,4.99
2023-11-23T03:07:34.857Z,5.05
2023-11-23T03:10:02.424Z,5.07
2023-11-23T03:12:30.094Z,5.10
2023-11-23T03:14:57.430Z,5.10
2023-11-23T03:17:24.787Z,5.12
2023-11-23T03:19:52.036Z,5.13
2023-11-23T03:22:19.284Z,5.16
2023-11-23T03:24:50.232Z,5.18
2023-11-23T03:27:20.994Z,5.20
2023-11-23T03:29:48.226Z,5.22
2023-11-23T03:32:15.843Z,5.25
2023-11-23T03:34:43.078Z,5.28
2023-11-23T03:37:10.285Z,5.31
2023-11-23T03:39:37.496Z,5.32
2023-11-23T03:42:06.398Z,5.34
2023-11-23T03:44:33.617Z,5.37
2023-11-23T03:47:06.283Z,5.36
2023-11-23T03:49:33.494Z,5.39
2023-11-23T03:52:00.691Z,5.41
2023-11-23T03:54:27.983Z,5.45
2023-11-23T03:56:55.288Z,5.44
2023-11-23T03:59:23.234Z,5.43
2023-11-23T04:01:50.799Z,5.45
2023-11-23T04:04:18.069Z,5.47
2023-11-23T04:06:45.376Z,5.49
2023-11-23T04:09:12.693Z,5.50
2023-11-23T04:11:40.130Z,5.52
2023-11-23T04:14:08.004Z,5.56
2023-11-23T04:16:35.259Z,5.57
2023-11-23T04:19:02.496Z,5.57
2023-11-23T04:21:29.724Z,5.59
2023-11-23T04:23:56.930Z,5.61
2023-11-23T04:26:24.135Z,5.65
2023-11-23T04:28:52.569Z,5.64
2023-11-23T04:31:20.219Z,5.68
2023-11-23T04:33:47.427Z,5.71
2023-11-23T04:36:14.776Z,5.73
2023-11-23T04:38:42.034Z,5.76
2023-11-23T04:41:09.249Z,5.79
2023-11-23T04:43:36.498Z,5.76
2023-11-23T04:46:03.736Z,5.80
2023-11-23T04:48:31.039Z,5.83
2023-11-23T04:50:59.036Z,5.86
2023-11-23T04:53:26.268Z,5.89
2023-11-23T04:55:53.462Z,5.89
2023-11-23T04:58:22.133Z,5.93
2023-11-23T05:00:53.278Z,5.96
2023-11-23T05:03:21.322Z,5.99
2023-11-23T05:05:48.733Z,6.04
2023-11-23T05:08:16.040Z,6.05
2023-11-23T05:10:44.142Z,6.09
2023-11-23T05:13:12.004Z,6.16
2023-11-23T05:15:39.420Z,6.19
2023-11-23T05:18:07.137Z,6.29
2023-11-23T05:20:34.425Z,6.34
2023-11-23T05:23:01.628Z,6.36
2023-11-23T05:25:28.833Z,6.40
2023-11-23T05:27:56.021Z,6.46
2023-11-23T05:30:23.273Z,6.51
2023-11-23T05:32:51.366Z,6.56
2023-11-23T05:35:18.583Z,6.61
2023-11-23T05:37:45.767Z,6.63
2023-11-23T05:40:14.456Z,6.68
2023-11-23T05:42:47.725Z,6.71
2023-11-23T05:45:20.976Z,6.72
2023-11-23T05:47:48.286Z,6.77
2023-11-23T05:50:15.564Z,6.78
2023-11-23T05:52:43.847Z,6.81
2023-11-23T05:55:11.042Z,6.83
2023-11-23T05:57:38.244Z,6.85
2023-11-23T06:00:07.141Z,6.91
2023-11-23T06:02:34.434Z,6.91
2023-11-23T06:05:01.739Z,6.90
2023-11-23T06:07:29.031Z,6.95
2023-11-23T06:09:57.236Z,6.95
2023-11-23T06:12:24.468Z,6.99
2023-11-23T06:14:51.757Z,7.04
2023-11-23T06:17:18.962Z,7.08
2023-11-23T06:19:46.726Z,7.09
2023-11-23T06:22:13.940Z,7.09
2023-11-23T06:24:41.265Z,7.14
2023-11-23T06:27:10.336Z,7.14
2023-11-23T06:29:37.648Z,7.17
2023-11-23T06:32:07.023Z,7.18
2023-11-23T06:34:37.724Z,7.22
2023-11-23T06:37:06.307Z,7.20
2023-11-23T06:39:38.002Z,7.20
2023-11-23T06:42:05.336Z,7.23
2023-11-23T06:44:32.745Z,7.27
2023-11-23T06:47:01.495Z,7.29
2023-11-23T06:49:28.723Z,7.31
2023-11-23T06:51:56.271Z,7.29
2023-11-23T06:54:23.598Z,7.32
2023-11-23T06:56:50.855Z,7.31
2023-11-23T06:59:19.480Z,7.36
2023-11-23T07:01:46.978Z,7.34
2023-11-23T07:04:15.132Z,7.39
2023-11-23T07:06:42.622Z,7.41
2023-11-23T07:09:11.512Z,7.42
2023-11-23T07:11:39.868Z,7.42
2023-11-23T07:14:07.401Z,7.41
2023-11-23T07:16:34.977Z,7.43
2023-11-23T07:19:02.274Z,7.44
2023-11-23T07:21:29.740Z,7.41
2023-11-23T07:24:06.365Z,7.40
2023-11-23T07:26:35.071Z,7.39
2023-11-23T07:29:07.528Z,7.35
2023-11-23T07:31:34.743Z,7.37
2023-11-23T07:34:01.991Z,7.36
2023-11-23T07:36:29.495Z,7.36
2023-11-23T07:38:57.035Z,7.37
2023-11-23T07:41:24.280Z,7.39
2023-11-23T07:43:51.842Z,7.39
2023-11-23T07:46:19.142Z,7.39
2023-11-23T07:48:51.839Z,7.39
2023-11-23T07:51:19.912Z,7.41
2023-11-23T07:53:52.212Z,7.43
2023-11-23T07:56:19.487Z,7.44
2023-11-23T07:58:47.774Z,7.42
2023-11-23T08:01:14.978Z,7.46
2023-11-23T08:03:42.709Z,7.47
2023-11-23T08:06:14.248Z,7.45
2023-11-23T08:08:41.457Z,7.44
2023-11-23T08:11:09.418Z,7.50
2023-11-23T08:13:36.856Z,7.50
2023-11-23T08:16:05.421Z,7.52
2023-11-23T08:18:40.205Z,7.56
2023-11-23T08:21:14.120Z,7.56
2023-11-23T08:23:42.578Z,7.59
2023-11-23T08:26:11.971Z,7.62
2023-11-23T08:28:39.229Z,7.66
2023-11-23T08:31:08.296Z,7.63
2023-11-23T08:33:35.601Z,7.67
2023-11-23T08:36:02.825Z,7.69
2023-11-23T08:38:30.259Z,7.71
2023-11-23T08:40:57.627Z,7.72
2023-11-23T08:43:24.834Z,7.75
2023-11-23T08:45:52.209Z,7.78
2023-11-23T08:48:23.559Z,7.80
2023-11-23T08:50:50.929Z,7.82
2023-11-23T08:53:18.178Z,7.82
2023-11-23T08:55:49.335Z,7.81
2023-11-23T08:58:16.587Z,7.83
2023-11-23T09:00:43.769Z,7.84
2023-11-23T09:03:11.718Z,7.86
2023-11-23T09:05:39.172Z,7.89
2023-11-23T09:08:08.036Z,7.93
2023-11-23T09:10:35.353Z,7.93
2023-11-23T09:13:02.844Z,7.95
2023-11-23T09:15:30.065Z,7.97
2023-11-23T09:17:57.418Z,7.98
2023-11-23T09:20:24.645Z,7.97
2023-11-23T09:22:51.823Z,8.02
2023-11-23T09:25:19.636Z,8.01
2023-11-23T09:27:46.952Z,8.06
2023-11-23T09:30:14.283Z,8.02
2023-11-23T09:33:01.482Z,8.07
2023-11-23T09:35:28.742Z,8.07
2023-11-23T09:37:55.989Z,8.05
2023-11-23T09:40:24.632Z,8.08
2023-11-23T09:42:51.870Z,8.11
2023-11-23T09:45:26.292Z,8.13
2023-11-23T09:47:54.367Z,8.12
2023-11-23T09:50:21.732Z,8.11
2023-11-23T09:52:49.633Z,8.11
2023-11-23T09:55:19.316Z,8.12
2023-11-23T09:57:49.354Z,8.15
2023-11-23T10:00:17.257Z,8.14
2023-11-23T10:02:45.594Z,8.16
2023-11-23T10:05:15.320Z,8.18
2023-11-23T10:07:43.870Z,8.16
2023-11-23T10:10:16.954Z,8.19
2023-11-23T10:12:55.322Z,8.22
2023-11-23T10:15:28.282Z,8.25
2023-11-23T10:18:05.418Z,8.25
2023-11-23T10:20:50.320Z,8.27
2023-11-23T10:23:24.390Z,8.31
2023-11-23T10:25:59.335Z,8.32
2023-11-23T10:28:40.296Z,8.34
2023-11-23T10:31:14.061Z,8.35
2023-11-23T10:33:48.027Z,8.36
2023-11-23T10:36:25.497Z,8.35
2023-11-23T10:39:06.119Z,8.34
2023-11-23T10:41:45.815Z,8.33
2023-11-23T10:44:23.870Z,8.32
2023-11-23T10:47:03.736Z,8.31
2023-11-23T10:49:38.788Z,8.32
2023-11-23T10:52:18.374Z,8.32
2023-11-23T10:54:53.593Z,8.29
2023-11-23T10:57:31.531Z,8.30
2023-11-23T11:00:12.516Z,8.33
2023-11-23T11:02:50.145Z,8.31
2023-11-23T11:05:25.029Z,8.35
2023-11-23T11:08:04.624Z,8.36
2023-11-23T11:10:52.389Z,8.34
2023-11-23T11:13:23.238Z,8.32
2023-11-23T11:15:59.246Z,8.33
2023-11-23T11:18:36.610Z,8.33
2023-11-23T11:21:10.575Z,8.39
2023-11-23T11:23:43.122Z,8.41
2023-11-23T11:26:12.493Z,8.44
2023-11-23T11:29:07.060Z,8.50
2023-11-23T11:31:55.914Z,8.55
2023-11-23T11:34:43.597Z,8.61
2023-11-23T11:37:32.364Z,8.66
2023-11-23T11:40:20.982Z,8.69
2023-11-23T11:43:09.322Z,8.80
2023-11-23T11:45:56.809Z,8.91
2023-11-23T11:48:46.689Z,9.11
2023-11-23T11:51:34.936Z,9.24
2023-11-23T11:54:29.251Z,9.32
2023-11-23T11:57:19.249Z,9.39
2023-11-23T12:00:08.795Z,9.48
2023-11-23T12:02:56.241Z,9.56
2023-11-23T12:05:43.992Z,9.63
2023-11-23T12:08:37.811Z,9.67
2023-11-23T12:11:29.055Z,9.69
2023-11-23T12:14:19.802Z,9.73
2023-11-23T12:17:14.443Z,9.75
2023-11-23T12:20:02.267Z,9.80
2023-11-23T12:22:49.670Z,9.80
2023-11-23T12:25:37.030Z,9.83
2023-11-23T12:28:24.605Z,9.87
2023-11-23T12:31:13.904Z,9.86
2023-11-23T12:34:01.338Z,9.89
2023-11-23T12:36:48.850Z,9.90
2023-11-23T12:39:36.210Z,9.90
2023-11-23T12:42:24.197Z,9.88
2023-11-23T12:45:13.374Z,9.91
2023-11-23T12:48:00.881Z,9.95
2023-11-23T12:50:49.082Z,9.96
2023-11-23T12:53:36.412Z,9.98
2023-11-23T12:56:24.300Z,10.03
2023-11-23T12:59:11.776Z,10.07
2023-11-23T13:02:00.699Z,10.14
2023-11-23T13:04:48.277Z,10.20
2023-11-23T13:07:40.263Z,10.23
2023-11-23T13:10:28.712Z,10.29
2023-11-23T13:13:16.698Z,10.35
2023-11-23T13:16:04.266Z,10.39
2023-11-23T13:19:06.286Z,10.41
2023-11-23T13:21:59.242Z,10.44
2023-11-23T13:24:49.492Z,10.45
2023-11-23T13:27:36.888Z,10.46
2023-11-23T13:30:32.656Z,10.44
2023-11-23T13:33:21.800Z,10.46
2023-11-23T13:36:09.862Z,10.44
2023-11-23T13:38:57.645Z,10.46
2023-11-23T13:41:45.031Z,10.45
2023-11-23T13:44:32.853Z,10.46
2023-11-23T13:47:20.601Z,10.47
2023-11-23T13:50:14.657Z,10.42
2023-11-23T13:53:02.297Z,10.41
2023-11-23T13:55:51.250Z,10.39
2023-11-23T13:58:38.838Z,10.38
2023-11-23T14:01:26.240Z,10.34
2023-11-23T14:04:14.455Z,10.36
2023-11-23T14:07:02.560Z,10.33
2023-11-23T14:09:49.939Z,10.32
2023-11-23T14:12:37.403Z,10.32
2023-11-23T14:15:26.113Z,10.32
2023-11-23T14:18:14.620Z,10.33
2023-11-23T14:21:03.919Z,10.37
2023-11-23T14:23:51.346Z,10.39
2023-11-23T14:26:38.981Z,10.42
2023-11-23T14:29:26.701Z,10.43
2023-11-23T14:32:14.398Z,10.43
2023-11-23T14:34:45.348Z,10.47
2023-11-23T14:37:13.786Z,10.47
2023-11-23T14:39:59.142Z,10.50
2023-11-23T14:42:55.986Z,10.49
2023-11-23T14:45:45.941Z,10.47
2023-11-23T14:48:33.408Z,10.47
2023-11-23T14:51:21.349Z,10.46
2023-11-23T14:54:14.440Z,10.46
2023-11-23T14:57:03.370Z,10.44
2023-11-23T14:59:30.556Z,10.46
2023-11-23T15:01:57.779Z,10.42
2023-11-23T15:04:24.965Z,10.45
2023-11-23T15:06:52.101Z,10.44
2023-11-23T15:09:19.805Z,10.46
2023-11-23T15:11:48.392Z,10.48
2023-11-23T15:14:15.585Z,10.49
2023-11-23T15:16:42.683Z,10.53
2023-11-23T15:19:11.109Z,10.51
2023-11-23T15:21:43.201Z,10.55
2023-11-23T15:24:10.899Z,10.57
2023-11-23T15:26:38.701Z,10.58
2023-11-23T15:29:05.729Z,10.58
2023-11-23T15:31:32.940Z,10.62
2023-11-23T15:34:00.034Z,10.66
2023-11-23T15:36:27.152Z,10.70
2023-11-23T15:38:54.176Z,10.68
2023-11-23T15:41:21.738Z,10.72
2023-11-23T15:43:49.005Z,10.73
2023-11-23T15:46:16.698Z,10.77
2023-11-23T15:48:44.195Z,10.80
2023-11-23T15:51:14.430Z,10.81
2023-11-23T15:53:41.551Z,10.85
2023-11-23T15:56:14.922Z,10.89
2023-11-23T15:58:41.951Z,10.89
2023-11-23T16:01:10.199Z,10.91
2023-11-23T16:03:37.292Z,10.94
2023-11-23T16:06:04.809Z,10.94
2023-11-23T16:08:31.847Z,10.98
2023-11-23T16:10:58.838Z,10.96
2023-11-23T16:13:25.884Z,10.98
2023-11-23T16:15:52.982Z,10.97
2023-11-23T16:18:20.133Z,10.98
2023-11-23T16:20:47.614Z,11.01
2023-11-23T16:23:14.671Z,11.03
2023-11-23T16:25:41.675Z,11.05
2023-11-23T16:28:08.689Z,11.07
2023-11-23T16:30:35.786Z,11.10
2023-11-23T16:33:03.345Z,11.11
2023-11-23T16:35:31.068Z,11.13
2023-11-23T16:37:58.187Z,11.12
2023-11-23T16:40:25.252Z,11.17
2023-11-23T16:42:52.325Z,11.19
2023-11-23T16:45:19.978Z,11.26
2023-11-23T16:47:47.073Z,11.21
2023-11-23T16:50:14.180Z,11.25
2023-11-23T16:52:41.242Z,11.25
2023-11-23T16:55:09.553Z,11.26
2023-11-23T16:57:37.190Z,11.28
2023-11-23T17:00:04.870Z,11.28
2023-11-23T17:02:32.114Z,11.29
2023-11-23T17:05:01.386Z,11.28
2023-11-23T17:07:28.909Z,11.31
2023-11-23T17:09:55.957Z,11.26
2023-11-23T17:12:23.400Z,11.29
2023-11-23T17:14:50.449Z,11.33
2023-11-23T17:17:17.462Z,11.29
2023-11-23T17:19:44.542Z,11.27
2023-11-23T17:22:11.587Z,11.24
2023-11-23T17:24:38.702Z,11.30
2023-11-23T17:27:06.278Z,11.31
2023-11-23T17:29:33.738Z,11.32
2023-11-23T17:32:04.456Z,11.33
2023-11-23T17:34:32.934Z,11.34
2023-11-23T17:36:59.975Z,11.35
2023-11-23T17:39:27.137Z,11.36
2023-11-23T17:41:54.949Z,11.42
2023-11-23T17:44:22.022Z,11.49
2023-11-23T17:46:51.349Z,11.48
2023-11-23T17:49:18.507Z,11.47
2023-11-23T17:51:46.303Z,11.49
2023-11-23T17:54:13.904Z,11.56
2023-11-23T17:56:41.360Z,11.58
2023-11-23T17:59:25.160Z,11.55
2023-11-23T18:01:58.634Z,11.56
2023-11-23T18:04:27.201Z,11.57
2023-11-23T18:06:55.411Z,11.54
2023-11-23T18:09:22.612Z,11.53
2023-11-23T18:11:50.124Z,11.47
2023-11-23T18:14:17.380Z,11.47
2023-11-23T18:17:03.226Z,11.44
2023-11-23T18:19:51.749Z,11.41
2023-11-23T18:22:19.719Z,11.34
2023-11-23T18:24:46.875Z,11.31
2023-11-23T18:27:14.122Z,11.31
2023-11-23T18:29:43.112Z,11.29
2023-11-23T18:32:14.667Z,11.25
2023-11-23T18:34:42.298Z,11.25
2023-11-23T18:37:13.317Z,11.22
2023-11-23T18:39:40.570Z,11.22
2023-11-23T18:42:11.455Z,11.17
2023-11-23T18:44:40.357Z,11.18
2023-11-23T18:47:08.732Z,11.18
2023-11-23T18:49:35.910Z,11.17
2023-11-23T18:52:04.047Z,11.18
2023-11-23T18:54:31.366Z,11.18
2023-11-23T18:56:58.547Z,11.17
2023-11-23T18:59:25.892Z,11.19
2023-11-23T19:01:55.527Z,11.22
2023-11-23T19:04:23.479Z,11.20
2023-11-23T19:06:54.358Z,11.21
2023-11-23T19:09:23.358Z,11.23
2023-11-23T19:11:50.674Z,11.21
2023-11-23T19:14:17.842Z,11.22
2023-11-23T19:16:45.092Z,11.23
2023-11-23T19:19:12.958Z,11.26
2023-11-23T19:21:40.727Z,11.27
2023-11-23T19:24:11.565Z,11.28
2023-11-23T19:26:39.447Z,11.29
2023-11-23T19:29:07.505Z,11.28
2023-11-23T19:31:35.588Z,11.29
2023-11-23T19:34:04.459Z,11.28
2023-11-23T19:36:32.046Z,11.31
2023-11-23T19:38:59.658Z,11.33
2023-11-23T19:41:27.083Z,11.33
2023-11-23T19:43:54.559Z,11.23
2023-11-23T19:46:21.949Z,11.19
2023-11-23T19:48:49.397Z,11.06
2023-11-23T19:51:22.551Z,10.97
2023-11-23T19:53:55.043Z,10.88
2023-11-23T19:56:25.559Z,10.81
2023-11-23T19:58:53.087Z,10.75
2023-11-23T20:01:20.477Z,10.66
2023-11-23T20:03:47.731Z,10.61
2023-11-23T20:06:14.902Z,10.53
2023-11-23T20:08:42.702Z,10.50
2023-11-23T20:11:10.596Z,10.44
2023-11-23T20:13:37.722Z,10.34
2023-11-23T20:16:05.143Z,10.28
2023-11-23T20:18:32.657Z,10.23
2023-11-23T20:20:59.789Z,10.17
2023-11-23T20:23:27.518Z,10.13
2023-11-23T20:25:54.761Z,10.07
2023-11-23T20:28:22.289Z,10.03
2023-11-23T20:30:50.419Z,9.98
2023-11-23T20:33:19.631Z,9.90
2023-11-23T20:35:47.523Z,9.89
2023-11-23T20:38:15.486Z,9.84
2023-11-23T20:40:43.826Z,9.81
2023-11-23T20:43:10.947Z,9.82
2023-11-23T20:45:38.163Z,9.77
2023-11-23T20:48:05.804Z,9.78
2023-11-23T20:50:32.956Z,9.70
2023-11-23T20:53:00.053Z,9.65
2023-11-23T20:55:27.385Z,9.66
2023-11-23T20:57:54.706Z,9.64
2023-11-23T21:00:23.557Z,9.63
2023-11-23T21:02:50.941Z,9.57
2023-11-23T21:05:18.627Z,9.51
2023-11-23T21:07:45.959Z,9.40
2023-11-23T21:10:13.605Z,9.32
2023-11-23T21:12:41.812Z,9.28
2023-11-23T21:15:09.121Z,9.22
2023-11-23T21:17:37.522Z,9.20
2023-11-23T21:20:06.332Z,9.15
2023-11-23T21:22:33.441Z,9.13
2023-11-23T21:25:00.539Z,9.09
2023-11-23T21:27:38.198Z,9.04
2023-11-23T21:30:09.661Z,8.97
2023-11-23T21:32:38.051Z,8.97
2023-11-23T21:35:05.623Z,8.97
2023-11-23T21:37:32.726Z,8.91
2023-11-23T21:39:59.854Z,8.92
2023-11-23T21:42:27.032Z,8.93
2023-11-23T21:44:55.596Z,8.89
2023-11-23T21:47:22.752Z,8.90
2023-11-23T21:49:49.964Z,8.87
2023-11-23T21:52:17.096Z,8.86
2023-11-23T21:54:50.655Z,8.86
2023-11-23T21:57:24.825Z,8.88
2023-11-23T21:59:51.977Z,8.86
2023-11-23T22:02:19.205Z,8.81
2023-11-23T22:04:47.269Z,8.77
2023-11-23T22:07:14.455Z,8.76
2023-11-23T22:09:41.744Z,8.73
2023-11-23T22:12:08.932Z,8.71
2023-11-23T22:14:37.724Z,8.73
2023-11-23T22:17:05.013Z,8.69
2023-11-23T22:19:32.212Z,8.70
2023-11-23T22:21:59.438Z,8.67
2023-11-23T22:24:27.379Z,8.65
2023-11-23T22:26:54.650Z,8.66
2023-11-23T22:29:21.768Z,8.66
2023-11-23T22:31:49.676Z,8.64
2023-11-23T22:34:16.986Z,8.58
2023-11-23T22:36:44.550Z,8.56
2023-11-23T22:39:11.875Z,8.56
2023-11-23T22:41:39.301Z,8.54
2023-11-23T22:44:09.799Z,8.50
2023-11-23T22:46:37.851Z,8.51
2023-11-23T22:49:04.956Z,8.44
2023-11-23T22:51:32.090Z,8.41
2023-11-23T22:53:59.320Z,8.44
2023-11-23T22:56:26.460Z,8.41
2023-11-23T22:58:53.997Z,8.41
2023-11-23T23:01:24.738Z,8.41
2023-11-23T23:03:52.049Z,8.40
2023-11-23T23:06:19.530Z,8.37
2023-11-23T23:08:47.165Z,8.36
2023-11-23T23:11:14.660Z,8.34
2023-11-23T23:13:41.820Z,8.33
2023-11-23T23:16:10.313Z,8.32
2023-11-23T23:18:37.553Z,8.34
2023-11-23T23:21:04.746Z,8.32
2023-11-23T23:23:32.245Z,8.30
2023-11-23T23:25:59.360Z,8.30
2023-11-23T23:28:31.878Z,8.29
2023-11-23T23:30:59.816Z,8.31
2023-11-23T23:33:27.097Z,8.29
2023-11-23T23:35:54.293Z,8.27
2023-11-23T23:38:21.492Z,8.26
2023-11-23T23:40:51.025Z,8.27
2023-11-23T23:43:18.688Z,8.31
2023-11-23T23:45:46.160Z,8.25
2023-11-23T23:48:14.466Z,8.21
2023-11-23T23:50:41.911Z,8.18
2023-11-23T23:53:09.241Z,8.17
2023-11-23T23:55:36.422Z,8.19
2023-11-23T23:58:05.518Z,8.15
